TimeMST,TemperatureF,Dew PointF,Humidity,Sea Level PressureIn,VisibilityMPH,Wind Direction,Wind SpeedMPH,Gust SpeedMPH,PrecipitationIn,Events,Conditions,WindDirDegrees,DateUTC
12:52 AM,30.0,27.0,88,30.38,-9999.0,Calm,Calm,-,N/A,,Unknown,0,2012-12-31 07:52:00
1:52 AM,30.0,27.0,88,30.38,-9999.0,Calm,Calm,-,N/A,,Unknown,0,2012-12-31 08:52:00
2:52 AM,30.0,27.0,88,30.40,-9999.0,Calm,Calm,-,N/A,,Unknown,0,2012-12-31 09:52:00
3:52 AM,30.0,26.1,85,30.40,-9999.0,Calm,Calm,-,N/A,,Unknown,0,2012-12-31 10:52:00
4:52 AM,30.0,26.1,85,30.40,-9999.0,Calm,Calm,-,N/A,,Unknown,0,2012-12-31 11:52:00
5:52 AM,30.0,26.1,85,30.40,-9999.0,Calm,Calm,-,N/A,,Unknown,0,2012-12-31 12:52:00
6:52 AM,30.0,26.1,85,30.40,-9999.0,Calm,Calm,-,N/A,,Unknown,0,2012-12-31 13:52:00
7:52 AM,28.9,26.1,89,30.40,-9999.0,Calm,Calm,-,N/A,,Unknown,0,2012-12-31 14:52:00
8:52 AM,28.9,26.1,89,30.41,-9999.0,Calm,Calm,-,N/A,,Unknown,0,2012-12-31 15:52:00
9:52 AM,30.0,26.1,85,30.41,-9999.0,Calm,Calm,-,N/A,,Unknown,0,2012-12-31 16:52:00
10:52 AM,30.9,25.0,79,30.40,-9999.0,Calm,Calm,-,N/A,,Unknown,0,2012-12-31 17:52:00
11:52 AM,33.1,25.0,72,30.40,-9999.0,Calm,Calm,-,N/A,,Unknown,0,2012-12-31 18:52:00
12:52 PM,36.0,25.0,64,30.37,-9999.0,Calm,Calm,-,N/A,,Unknown,0,2012-12-31 19:52:00
1:52 PM,33.1,25.0,72,30.37,-9999.0,South,8.1,-,N/A,,Unknown,170,2012-12-31 20:52:00
2:52 PM,33.1,25.0,72,30.38,-9999.0,South,8.1,-,N/A,,Unknown,170,2012-12-31 21:52:00
3:00 PM,-9999,-9999,N/A,-9999,-9999.0,North,-9999.0,-,N/A,,Unknown,0,2012-12-31 22:00:00
3:52 PM,33.1,24.1,70,30.38,-9999.0,SSE,5.8,-,N/A,,Unknown,160,2012-12-31 22:52:00
4:52 PM,32.0,25.0,75,30.40,-9999.0,Variable,4.6,-,N/A,,Unknown,0,2012-12-31 23:52:00
5:52 PM,30.9,26.1,82,30.41,-9999.0,Calm,Calm,-,N/A,,Unknown,0,2013-01-01 00:52:00
6:52 PM,30.9,26.1,82,30.41,-9999.0,Calm,Calm,-,N/A,,Unknown,0,2013-01-01 01:52:00
7:52 PM,30.0,26.1,85,30.44,-9999.0,Calm,Calm,-,N/A,,Unknown,0,2013-01-01 02:52:00
8:52 PM,28.9,25.0,85,30.45,-9999.0,Calm,Calm,-,N/A,,Unknown,0,2013-01-01 03:52:00
9:52 PM,28.9,26.1,89,30.47,-9999.0,Calm,Calm,-,N/A,,Unknown,0,2013-01-01 04:52:00
10:52 PM,30.0,26.1,85,30.49,-9999.0,Calm,Calm,-,N/A,,Unknown,0,2013-01-01 05:52:00
11:52 PM,30.0,26.1,85,30.51,-9999.0,Calm,Calm,-,N/A,,Unknown,0,2013-01-01 06:52:00